Time;durP1;ratioP1;P1;durP2;ratioP2;P2;SDS_P1;SDS_P2;PMS_P1;PMS_P2;Temp;Humidity;BMP_temperature;BMP_pressure;BME280_temperature;BME280_humidity;BME280_pressure;Samples;Min_cycle;Max_cycle;Signal;HPM_P1;HPM_P2
2023/05/11 00:01:30;;;;;;;3.73;1.90;;;20.30;67.40;;;;;;5069900;28;20404;-66
2023/05/11 00:03:56;;;;;;;2.63;1.85;;;20.30;67.40;;;;;;5082057;28;20059;-66
2023/05/11 00:06:22;;;;;;;2.65;1.83;;;20.20;67.40;;;;;;5071626;28;20037;-66
2023/05/11 00:08:47;;;;;;;3.10;1.83;;;20.20;67.40;;;;;;5071142;28;20114;-66
2023/05/11 00:11:13;;;;;;;3.97;2.10;;;20.20;67.40;;;;;;5072123;28;20037;-66
2023/05/11 00:13:38;;;;;;;4.07;2.00;;;20.20;67.40;;;;;;5071810;28;20044;-66
2023/05/11 00:16:04;;;;;;;2.88;1.80;;;20.20;67.40;;;;;;5070805;28;20158;-66
2023/05/11 00:18:30;;;;;;;3.08;1.80;;;20.20;67.40;;;;;;5070406;28;20051;-66
2023/05/11 00:20:55;;;;;;;3.20;1.75;;;20.20;67.30;;;;;;5071650;28;20041;-66
2023/05/11 00:23:21;;;;;;;3.55;1.92;;;20.20;67.20;;;;;;5070984;28;20037;-67
2023/05/11 00:25:46;;;;;;;3.05;1.95;;;20.20;67.20;;;;;;5075693;28;20067;-66
2023/05/11 00:28:12;;;;;;;3.17;1.70;;;20.20;67.20;;;;;;5074914;28;20056;-66
2023/05/11 00:30:39;;;;;;;4.85;1.95;;;20.20;67.20;;;;;;5076322;28;20048;-65
2023/05/11 00:33:04;;;;;;;3.45;2.38;;;20.20;67.30;;;;;;5076190;28;20094;-66
2023/05/11 00:35:31;;;;;;;3.50;2.13;;;20.20;67.20;;;;;;5075348;28;20098;-66
2023/05/11 00:37:57;;;;;;;2.50;1.67;;;20.20;67.20;;;;;;5076062;28;20053;-66
2023/05/11 00:40:23;;;;;;;4.03;1.70;;;20.20;67.10;;;;;;5076122;28;20039;-66
2023/05/11 00:42:48;;;;;;;3.10;1.90;;;20.20;67.20;;;;;;5074230;28;20044;-66
2023/05/11 00:45:14;;;;;;;4.85;2.13;;;20.20;67.20;;;;;;5074570;28;20491;-66
2023/05/11 00:47:40;;;;;;;2.88;1.90;;;20.20;67.20;;;;;;5076214;28;20080;-66
2023/05/11 00:50:07;;;;;;;3.03;1.92;;;20.20;67.20;;;;;;5074932;28;20048;-66
2023/05/11 00:52:33;;;;;;;3.53;2.20;;;20.10;67.20;;;;;;5041776;28;20494;-66
2023/05/11 00:54:58;;;;;;;3.53;1.90;;;20.20;67.20;;;;;;5074807;28;20037;-66
2023/05/11 00:57:24;;;;;;;3.13;1.63;;;20.20;67.10;;;;;;5073556;28;20564;-66
2023/05/11 00:59:49;;;;;;;4.25;2.00;;;20.10;67.20;;;;;;5075860;28;20399;-66
2023/05/11 01:02:15;;;;;;;3.25;1.80;;;20.10;67.20;;;;;;5075411;28;20040;-66
2023/05/11 01:04:41;;;;;;;2.78;1.60;;;20.10;67.10;;;;;;5073666;28;20045;-66
2023/05/11 01:07:16;;;;;;;3.42;1.80;;;20.10;67.10;;;;;;5075088;28;20052;-66
2023/05/11 01:10:16;;;;;;;2.78;1.85;;;20.10;67.00;;;;;;5074346;28;20501;-67
2023/05/11 01:12:51;;;;;;;3.33;2.08;;;20.10;67.00;;;;;;5074629;28;20037;-66
2023/05/11 01:15:27;;;;;;;2.38;1.42;;;20.10;67.10;;;;;;5075316;28;20040;-66
2023/05/11 01:18:20;;;;;;;2.65;1.55;;;20.10;67.00;;;;;;5073487;28;20045;-66
2023/05/11 01:20:47;;;;;;;3.63;2.15;;;20.10;66.90;;;;;;5069533;28;20040;-67
2023/05/11 01:23:37;;;;;;;3.45;1.70;;;20.10;67.00;;;;;;5057190;28;20135;-66
2023/05/11 01:26:24;;;;;;;3.05;1.90;;;20.10;67.00;;;;;;5074126;28;20052;-66
2023/05/11 01:29:17;;;;;;;2.88;1.88;;;20.10;67.00;;;;;;5075296;28;20098;-66
2023/05/11 01:31:45;;;;;;;2.40;1.80;;;20.10;66.90;;;;;;5073087;28;20051;-66
2023/05/11 01:34:17;;;;;;;2.60;1.80;;;20.10;66.90;;;;;;5056712;28;20076;-66
2023/05/11 01:36:56;;;;;;;2.63;1.80;;;20.10;67.00;;;;;;5057121;28;20044;-66
2023/05/11 01:39:27;;;;;;;2.50;1.70;;;20.10;66.90;;;;;;5057955;28;20044;-66
2023/05/11 01:41:53;;;;;;;2.42;1.77;;;20.00;66.90;;;;;;5073579;28;20093;-67
2023/05/11 01:44:19;;;;;;;3.28;1.88;;;20.10;66.90;;;;;;5040003;28;20037;-66
2023/05/11 01:46:45;;;;;;;2.78;1.60;;;20.00;66.80;;;;;;5072814;28;20143;-66
2023/05/11 01:49:10;;;;;;;3.05;1.50;;;20.10;66.90;;;;;;5073335;28;20127;-66
2023/05/11 01:51:36;;;;;;;2.28;1.65;;;20.00;66.80;;;;;;5057166;28;20479;-67
2023/05/11 01:54:06;;;;;;;4.93;1.85;;;20.10;66.90;;;;;;5073050;28;20531;-66
2023/05/11 01:56:32;;;;;;;2.95;1.83;;;20.10;66.90;;;;;;5040763;28;20049;-66
2023/05/11 01:58:58;;;;;;;4.90;2.00;;;20.00;66.80;;;;;;5074847;28;20068;-66
2023/05/11 02:01:23;;;;;;;3.53;1.83;;;20.00;66.80;;;;;;5055627;28;20036;-66
2023/05/11 02:03:49;;;;;;;2.80;1.83;;;20.00;66.80;;;;;;5073361;28;20412;-66
2023/05/11 02:06:15;;;;;;;3.08;1.70;;;20.00;66.70;;;;;;5071709;28;20036;-66
2023/05/11 02:08:40;;;;;;;2.45;1.77;;;20.00;66.70;;;;;;5073148;28;20127;-66
2023/05/11 02:11:06;;;;;;;2.55;1.77;;;20.00;66.70;;;;;;5074460;28;20037;-68
2023/05/11 02:13:32;;;;;;;2.45;1.80;;;20.00;66.70;;;;;;5072356;28;20040;-65
2023/05/11 02:15:57;;;;;;;3.30;1.77;;;20.00;66.70;;;;;;5073179;28;20040;-66
2023/05/11 02:18:23;;;;;;;2.67;1.70;;;20.00;66.70;;;;;;5073188;28;20043;-67
2023/05/11 02:20:49;;;;;;;3.10;1.83;;;20.00;66.70;;;;;;5055903;28;20036;-66
2023/05/11 02:23:14;;;;;;;2.58;1.70;;;20.00;66.70;;;;;;5056400;28;20395;-67
2023/05/11 02:25:40;;;;;;;2.58;1.60;;;20.00;66.70;;;;;;5056241;28;20407;-66
2023/05/11 02:28:06;;;;;;;2.42;1.63;;;20.00;66.70;;;;;;5055005;28;20473;-67
2023/05/11 02:30:34;;;;;;;2.55;1.90;;;20.00;66.60;;;;;;5072931;28;20051;-66
2023/05/11 02:33:03;;;;;;;2.60;1.77;;;20.00;66.60;;;;;;5072800;28;20433;-66
2023/05/11 02:35:29;;;;;;;3.00;1.90;;;20.00;66.70;;;;;;5071886;28;20079;-66
2023/05/11 02:37:56;;;;;;;2.72;1.90;;;20.00;66.60;;;;;;5072787;28;20040;-66
2023/05/11 02:40:28;;;;;;;2.53;1.80;;;20.00;66.60;;;;;;5072497;28;20076;-67
2023/05/11 02:42:56;;;;;;;3.15;2.10;;;20.00;66.60;;;;;;5055501;28;20041;-67
2023/05/11 02:45:22;;;;;;;2.30;1.80;;;20.00;66.50;;;;;;5072079;28;20072;-66
2023/05/11 02:47:52;;;;;;;2.83;2.00;;;20.00;66.60;;;;;;5038873;28;20048;-67
2023/05/11 02:50:17;;;;;;;3.33;2.15;;;20.00;66.60;;;;;;5071678;28;20522;-67
2023/05/11 02:52:44;;;;;;;3.30;2.03;;;20.00;66.50;;;;;;5039327;28;20048;-66
2023/05/11 02:55:10;;;;;;;2.72;1.80;;;19.90;66.40;;;;;;5038949;28;20045;-66
2023/05/11 02:57:36;;;;;;;3.22;2.05;;;19.90;66.40;;;;;;5072862;28;20036;-66
2023/05/11 03:00:02;;;;;;;4.15;2.15;;;19.90;66.40;;;;;;5072388;28;20124;-66
2023/05/11 03:02:28;;;;;;;3.22;1.92;;;19.90;66.40;;;;;;5071248;28;20127;-66
2023/05/11 03:04:53;;;;;;;2.47;1.80;;;19.90;66.40;;;;;;5073428;28;20052;-67
2023/05/11 03:07:19;;;;;;;2.88;2.00;;;19.90;66.40;;;;;;5072823;28;20052;-67
2023/05/11 03:09:44;;;;;;;3.67;2.00;;;19.90;66.40;;;;;;5072792;28;20051;-66
2023/05/11 03:12:10;;;;;;;2.85;1.70;;;19.90;66.40;;;;;;5072664;28;20047;-66
2023/05/11 03:14:35;;;;;;;3.03;1.75;;;19.90;66.40;;;;;;5055376;28;20553;-66
2023/05/11 03:17:02;;;;;;;3.03;2.13;;;19.90;66.40;;;;;;5054383;28;20048;-66
2023/05/11 03:19:28;;;;;;;2.60;2.15;;;19.90;66.40;;;;;;5072728;28;20381;-67
2023/05/11 03:21:53;;;;;;;3.63;2.00;;;19.90;66.40;;;;;;5071836;28;20044;-67
2023/05/11 03:24:19;;;;;;;3.30;2.00;;;19.90;66.40;;;;;;5054138;28;20040;-66
2023/05/11 03:26:45;;;;;;;2.97;2.00;;;19.90;66.40;;;;;;5055429;28;20126;-67
2023/05/11 03:29:10;;;;;;;3.03;1.67;;;19.90;66.40;;;;;;5071515;28;20395;-67
2023/05/11 03:31:36;;;;;;;3.50;2.05;;;19.90;66.40;;;;;;5071074;28;20040;-67
2023/05/11 03:34:01;;;;;;;3.47;1.98;;;19.90;66.40;;;;;;5071917;28;20113;-67
2023/05/11 03:36:27;;;;;;;2.75;2.00;;;19.90;66.40;;;;;;5071172;28;20047;-67
2023/05/11 03:38:55;;;;;;;3.45;2.28;;;19.90;66.40;;;;;;5071200;28;20040;-67
2023/05/11 03:41:20;;;;;;;2.38;1.85;;;19.90;66.40;;;;;;5071512;28;20037;-67
2023/05/11 03:43:46;;;;;;;3.40;2.08;;;19.90;66.40;;;;;;5054927;28;20476;-67
2023/05/11 03:46:12;;;;;;;3.45;2.17;;;19.90;66.40;;;;;;5053986;28;20076;-67
2023/05/11 03:48:39;;;;;;;3.05;2.00;;;19.90;66.40;;;;;;5054870;28;20416;-67
2023/05/11 03:51:05;;;;;;;3.13;2.10;;;19.90;66.30;;;;;;5071693;28;20055;-67
2023/05/11 03:53:30;;;;;;;3.78;2.25;;;19.90;66.30;;;;;;5070877;28;20044;-67
2023/05/11 03:55:56;;;;;;;2.95;1.92;;;19.90;66.30;;;;;;5071459;28;20072;-67
2023/05/11 03:58:22;;;;;;;2.97;1.90;;;19.90;66.30;;;;;;5071463;28;20093;-67
2023/05/11 04:00:47;;;;;;;2.72;1.95;;;19.90;66.30;;;;;;5067508;28;20133;-67
2023/05/11 04:03:13;;;;;;;2.83;2.20;;;19.90;66.40;;;;;;5060151;28;20098;-67
2023/05/11 04:05:39;;;;;;;3.22;1.92;;;19.90;66.30;;;;;;5070561;28;20048;-67
2023/05/11 04:08:05;;;;;;;2.70;1.80;;;19.90;66.40;;;;;;5070943;28;20044;-67
2023/05/11 04:10:30;;;;;;;2.88;1.95;;;19.90;66.40;;;;;;5071041;28;20114;-67
2023/05/11 04:12:56;;;;;;;3.20;2.15;;;19.90;66.40;;;;;;5071661;28;20124;-67
2023/05/11 04:15:21;;;;;;;2.22;1.60;;;19.90;66.40;;;;;;5072373;28;20207;-66
2023/05/11 04:17:47;;;;;;;2.53;2.00;;;19.90;66.40;;;;;;5072060;28;20434;-66
2023/05/11 04:20:13;;;;;;;2.70;1.88;;;19.90;66.40;;;;;;5071291;28;20072;-67
2023/05/11 04:22:38;;;;;;;2.72;1.83;;;19.90;66.40;;;;;;5072450;28;20049;-66
2023/05/11 04:25:04;;;;;;;3.17;1.73;;;19.90;66.30;;;;;;5071759;28;20053;-67
2023/05/11 04:27:33;;;;;;;2.70;1.75;;;19.90;66.30;;;;;;5069695;28;20048;-66
2023/05/11 04:29:59;;;;;;;3.00;2.00;;;19.90;66.30;;;;;;5072496;28;20052;-67
2023/05/11 04:32:25;;;;;;;2.17;1.63;;;20.00;66.30;;;;;;5071981;28;20040;-67
2023/05/11 04:34:50;;;;;;;3.05;2.28;;;20.00;66.30;;;;;;5071738;28;20045;-66
2023/05/11 04:37:16;;;;;;;4.22;2.00;;;20.00;66.30;;;;;;5071933;28;20036;-67
2023/05/11 04:39:41;;;;;;;2.80;2.00;;;20.00;66.30;;;;;;5072475;28;20036;-67
2023/05/11 04:42:07;;;;;;;3.03;1.80;;;20.00;66.30;;;;;;5070899;28;20182;-67
2023/05/11 04:44:32;;;;;;;2.80;1.80;;;20.00;66.20;;;;;;5072353;28;20094;-66
2023/05/11 04:46:58;;;;;;;2.38;1.98;;;20.00;66.20;;;;;;5072279;28;20051;-66
2023/05/11 04:49:23;;;;;;;2.50;1.75;;;20.00;66.20;;;;;;5071298;28;20047;-67
2023/05/11 04:51:49;;;;;;;3.22;1.92;;;20.00;66.20;;;;;;5072082;28;20531;-67
2023/05/11 04:54:15;;;;;;;3.42;2.08;;;20.00;66.30;;;;;;5070621;28;20123;-67
2023/05/11 04:56:41;;;;;;;2.72;1.80;;;20.00;66.20;;;;;;5071452;28;20044;-67
2023/05/11 04:59:07;;;;;;;2.63;1.83;;;20.00;66.30;;;;;;5071510;28;20041;-67
2023/05/11 05:01:32;;;;;;;2.58;1.77;;;20.00;66.20;;;;;;5071766;28;20051;-67
2023/05/11 05:03:58;;;;;;;2.55;1.80;;;20.10;66.30;;;;;;5069917;28;20045;-67
2023/05/11 05:06:23;;;;;;;3.20;1.88;;;20.10;66.30;;;;;;5071224;28;20056;-67
2023/05/11 05:08:49;;;;;;;2.40;1.70;;;20.10;66.20;;;;;;5050453;28;20496;-67
2023/05/11 05:11:15;;;;;;;2.65;1.70;;;20.10;66.30;;;;;;5053267;28;20471;-67
2023/05/11 05:13:40;;;;;;;2.40;1.75;;;20.10;66.20;;;;;;5072724;28;20058;-67
2023/05/11 05:16:06;;;;;;;2.75;1.70;;;20.10;66.20;;;;;;5073738;28;20044;-67
2023/05/11 05:18:32;;;;;;;2.35;1.67;;;20.10;66.20;;;;;;5073661;28;20047;-67
2023/05/11 05:20:57;;;;;;;3.40;1.90;;;20.10;66.20;;;;;;5075241;28;20040;-69
2023/05/11 05:23:23;;;;;;;3.33;1.75;;;20.10;66.10;;;;;;5072977;28;20036;-68
2023/05/11 05:25:48;;;;;;;2.85;1.42;;;20.10;66.10;;;;;;5074906;28;20063;-68
2023/05/11 05:28:14;;;;;;;2.70;2.10;;;20.10;66.20;;;;;;5074303;28;20101;-68
2023/05/11 05:30:39;;;;;;;4.45;2.00;;;20.10;66.20;;;;;;5074322;28;20076;-68
2023/05/11 05:33:05;;;;;;;7.00;2.15;;;20.10;66.20;;;;;;5073852;28;20048;-68
2023/05/11 05:35:31;;;;;;;5.95;2.25;;;20.10;66.20;;;;;;5075428;28;20071;-68
2023/05/11 05:37:56;;;;;;;4.03;1.88;;;20.10;66.20;;;;;;5073931;28;20044;-68
2023/05/11 05:40:22;;;;;;;5.32;2.00;;;20.10;66.20;;;;;;5074870;28;20488;-68
2023/05/11 05:42:47;;;;;;;3.38;2.38;;;20.10;66.20;;;;;;5074855;28;20059;-68
2023/05/11 05:45:13;;;;;;;4.53;2.17;;;20.10;66.20;;;;;;5055856;28;20044;-68
2023/05/11 05:47:38;;;;;;;3.25;1.92;;;20.10;66.10;;;;;;5074630;28;20048;-68
2023/05/11 05:50:08;;;;;;;3.55;2.05;;;20.10;66.10;;;;;;5072981;28;20535;-68
2023/05/11 05:52:33;;;;;;;3.75;1.92;;;20.10;66.20;;;;;;5074111;28;20037;-68
2023/05/11 05:54:59;;;;;;;3.88;1.88;;;20.10;66.30;;;;;;5074776;28;20048;-68
2023/05/11 05:57:24;;;;;;;6.28;2.17;;;20.10;66.30;;;;;;5072610;28;20480;-68
2023/05/11 05:59:50;;;;;;;3.95;2.30;;;20.10;66.30;;;;;;5078171;28;20044;-68
2023/05/11 06:02:15;;;;;;;5.50;1.92;;;20.10;67.00;;;;;;5074079;28;20040;-67
2023/05/11 06:04:41;;;;;;;5.22;2.28;;;20.10;66.40;;;;;;5074545;28;20044;-64
2023/05/11 06:07:07;;;;;;;3.97;2.17;;;20.10;66.50;;;;;;5071779;28;20138;-64
2023/05/11 06:09:32;;;;;;;4.22;2.10;;;20.10;66.40;;;;;;5074092;28;20084;-69
2023/05/11 06:11:58;;;;;;;7.07;2.00;;;20.10;66.40;;;;;;5074672;28;20094;-68
2023/05/11 06:14:23;;;;;;;4.15;2.20;;;20.10;66.40;;;;;;5073487;28;20427;-68
2023/05/11 06:16:49;;;;;;;5.95;2.10;;;20.10;66.50;;;;;;5074161;28;20044;-69
2023/05/11 06:19:15;;;;;;;3.33;1.98;;;20.20;66.50;;;;;;5072828;28;20492;-67
2023/05/11 06:21:41;;;;;;;4.90;2.33;;;20.20;66.60;;;;;;5072542;28;20467;-69
2023/05/11 06:24:07;;;;;;;4.30;2.08;;;20.20;66.60;;;;;;5073838;28;20040;-68
2023/05/11 06:26:33;;;;;;;3.67;2.00;;;20.20;66.70;;;;;;5073275;28;20515;-69
2023/05/11 06:28:58;;;;;;;8.52;1.90;;;20.20;66.60;;;;;;5072519;28;20080;-70
2023/05/11 06:31:24;;;;;;;2.88;1.90;;;20.20;66.60;;;;;;5072252;28;20044;-70
2023/05/11 06:33:50;;;;;;;3.28;2.00;;;20.20;66.70;;;;;;5073125;28;20171;-69
2023/05/11 06:36:15;;;;;;;3.33;1.95;;;20.20;66.70;;;;;;5073494;28;20040;-69
2023/05/11 06:38:41;;;;;;;3.30;2.20;;;20.20;66.70;;;;;;5074072;28;20033;-70
2023/05/11 06:41:08;;;;;;;5.70;1.90;;;20.20;66.80;;;;;;5071787;28;20047;-70
2023/05/11 06:43:34;;;;;;;6.90;2.30;;;20.20;66.80;;;;;;5073596;28;20063;-70
2023/05/11 06:45:59;;;;;;;4.03;1.98;;;20.20;66.80;;;;;;5073833;28;20127;-70
2023/05/11 06:48:28;;;;;;;3.78;1.80;;;20.20;66.90;;;;;;5072398;28;20088;-70
2023/05/11 06:50:54;;;;;;;4.63;2.03;;;20.20;66.90;;;;;;5073802;28;20101;-68
2023/05/11 06:53:20;;;;;;;3.47;2.10;;;20.20;66.90;;;;;;5071781;28;20044;-69
2023/05/11 06:55:46;;;;;;;3.85;2.05;;;20.20;66.90;;;;;;5071493;28;20045;-70
2023/05/11 06:58:11;;;;;;;3.53;2.25;;;20.20;67.00;;;;;;5073172;28;20124;-70
2023/05/11 07:00:37;;;;;;;4.43;2.10;;;20.20;67.00;;;;;;5071898;28;20364;-69
2023/05/11 07:03:03;;;;;;;6.55;2.00;;;20.20;67.00;;;;;;5071541;28;20037;-65
2023/05/11 07:05:29;;;;;;;4.10;2.33;;;20.20;67.10;;;;;;5072877;28;20044;-64
2023/05/11 07:07:54;;;;;;;6.78;2.25;;;20.20;67.10;;;;;;5071975;28;20128;-70
2023/05/11 07:10:20;;;;;;;3.95;2.35;;;20.20;67.10;;;;;;5071129;28;20127;-68
2023/05/11 07:12:45;;;;;;;4.40;2.30;;;20.30;67.20;;;;;;5071918;28;20044;-69
2023/05/11 07:15:11;;;;;;;3.33;2.25;;;20.30;67.10;;;;;;5072888;28;20044;-70
2023/05/11 07:17:37;;;;;;;5.28;2.20;;;20.30;67.10;;;;;;5072550;28;20059;-71
2023/05/11 07:20:02;;;;;;;6.45;2.47;;;20.30;67.10;;;;;;5073044;28;20094;-70
2023/05/11 07:22:28;;;;;;;4.65;2.60;;;20.30;67.20;;;;;;5072974;28;20041;-69
2023/05/11 07:24:53;;;;;;;4.15;2.40;;;20.30;67.20;;;;;;5070943;28;20070;-70
2023/05/11 07:27:19;;;;;;;4.40;2.28;;;20.30;67.20;;;;;;5072879;28;20052;-71
2023/05/11 07:29:44;;;;;;;5.90;2.63;;;20.30;67.30;;;;;;5071148;28;20041;-69
2023/05/11 07:32:10;;;;;;;3.58;2.38;;;20.30;67.30;;;;;;5071678;28;20036;-69
2023/05/11 07:34:35;;;;;;;3.83;2.40;;;20.30;67.40;;;;;;5072363;28;20045;-69
2023/05/11 07:37:01;;;;;;;3.63;2.00;;;20.30;67.40;;;;;;5070775;28;20052;-70
2023/05/11 07:39:26;;;;;;;5.45;2.63;;;20.30;67.40;;;;;;5071016;28;20041;-69
2023/05/11 07:41:52;;;;;;;3.92;2.40;;;20.30;67.40;;;;;;5073010;28;20040;-69
2023/05/11 07:44:18;;;;;;;4.70;2.05;;;20.30;67.40;;;;;;5071702;28;20123;-70
2023/05/11 07:46:43;;;;;;;3.72;2.13;;;20.30;67.40;;;;;;5073029;28;20064;-71
2023/05/11 07:49:09;;;;;;;3.10;1.95;;;20.30;67.50;;;;;;5072076;28;20055;-70
2023/05/11 07:51:36;;;;;;;6.63;2.28;;;20.30;67.50;;;;;;5072032;28;20476;-67
2023/05/11 07:54:01;;;;;;;6.57;2.90;;;20.30;67.50;;;;;;5072675;28;20036;-68
2023/05/11 07:56:27;;;;;;;4.07;2.05;;;20.30;67.50;;;;;;5072398;28;20044;-68
2023/05/11 07:58:52;;;;;;;3.95;2.30;;;20.30;67.50;;;;;;5068371;28;20087;-71
2023/05/11 08:01:18;;;;;;;5.78;2.47;;;20.30;67.60;;;;;;5071901;28;20047;-72
2023/05/11 08:03:43;;;;;;;3.25;2.03;;;20.30;67.70;;;;;;5053133;28;20049;-72
2023/05/11 08:06:09;;;;;;;3.92;2.20;;;20.30;67.70;;;;;;5071254;28;20131;-74
2023/05/11 08:08:35;;;;;;;5.10;2.20;;;20.30;67.70;;;;;;5072421;28;20045;-72
2023/05/11 08:11:00;;;;;;;3.28;2.10;;;20.30;67.70;;;;;;5070996;28;20136;-74
2023/05/11 08:13:26;;;;;;;5.68;2.33;;;20.30;67.70;;;;;;5070126;28;20040;-74
2023/05/11 08:15:51;;;;;;;4.63;2.40;;;20.30;67.70;;;;;;5072283;28;20040;-71
2023/05/11 08:18:17;;;;;;;5.15;2.28;;;20.30;67.80;;;;;;5070692;28;20082;-74
2023/05/11 08:20:42;;;;;;;7.03;2.28;;;20.30;67.80;;;;;;5071627;28;20483;-76
2023/05/11 08:23:09;;;;;;;4.00;2.40;;;20.30;67.80;;;;;;5072191;28;20037;-72
2023/05/11 08:25:35;;;;;;;4.28;2.42;;;20.30;67.80;;;;;;5072089;28;20071;-72
2023/05/11 08:28:01;;;;;;;5.95;2.50;;;20.30;67.80;;;;;;5071522;28;20037;-74
2023/05/11 08:30:26;;;;;;;3.92;2.70;;;20.30;67.80;;;;;;5070563;28;20492;-72
2023/05/11 08:32:52;;;;;;;4.70;2.58;;;20.30;67.80;;;;;;5071882;28;20047;-74
2023/05/11 08:35:18;;;;;;;4.38;2.33;;;20.30;67.80;;;;;;5071106;28;20044;-74
2023/05/11 08:37:43;;;;;;;3.75;2.22;;;20.30;67.80;;;;;;5071917;28;20032;-74
2023/05/11 08:40:10;;;;;;;3.42;2.17;;;20.30;67.80;;;;;;5071274;28;20480;-75
2023/05/11 08:42:35;;;;;;;5.10;2.60;;;20.30;67.90;;;;;;5072276;28;20041;-74
2023/05/11 08:45:02;;;;;;;4.45;2.47;;;20.30;67.90;;;;;;5072252;28;20098;-73
2023/05/11 08:47:28;;;;;;;6.15;2.50;;;20.30;67.90;;;;;;5074052;28;20044;-70
2023/05/11 08:49:53;;;;;;;4.30;2.65;;;20.30;67.80;;;;;;5072256;28;20378;-71
2023/05/11 08:52:19;;;;;;;3.45;2.20;;;20.30;67.80;;;;;;5059777;28;20132;-71
2023/05/11 08:54:45;;;;;;;4.15;2.53;;;20.30;67.80;;;;;;5063628;28;20055;-70
2023/05/11 08:57:12;;;;;;;7.47;3.10;;;20.30;67.70;;;;;;5061152;28;20044;-70
2023/05/11 08:59:37;;;;;;;5.63;2.70;;;20.30;67.70;;;;;;5065941;28;20044;-70
2023/05/11 09:02:03;;;;;;;5.07;2.63;;;20.30;67.50;;;;;;5049537;28;20041;-70
2023/05/11 09:04:29;;;;;;;4.97;2.20;;;20.30;67.50;;;;;;5062755;28;20044;-71
2023/05/11 09:06:55;;;;;;;3.47;2.40;;;20.30;67.50;;;;;;5070621;28;20041;-71
2023/05/11 09:09:21;;;;;;;6.65;2.47;;;20.20;67.40;;;;;;5046583;28;20041;-71
2023/05/11 09:11:46;;;;;;;7.03;2.72;;;20.20;67.40;;;;;;5070339;28;20048;-70
2023/05/11 09:14:12;;;;;;;4.63;2.90;;;20.20;67.40;;;;;;5073308;28;20047;-70
2023/05/11 09:16:38;;;;;;;5.03;2.97;;;20.20;67.40;;;;;;5073395;28;20097;-70
2023/05/11 09:19:04;;;;;;;10.73;4.45;;;20.20;67.30;;;;;;5075444;28;20090;-71
2023/05/11 09:21:30;;;;;;;6.63;3.05;;;20.20;67.30;;;;;;5075293;28;20098;-70
2023/05/11 09:23:58;;;;;;;7.00;3.80;;;20.20;67.20;;;;;;5074701;28;20033;-70
2023/05/11 09:26:24;;;;;;;7.33;3.90;;;20.20;67.20;;;;;;5074913;28;20059;-71
2023/05/11 09:28:51;;;;;;;9.52;4.22;;;20.20;67.20;;;;;;5073027;28;20044;-69
2023/05/11 09:31:36;;;;;;;9.25;4.10;;;20.20;67.20;;;;;;5072879;28;20048;-70
2023/05/11 09:34:17;;;;;;;9.05;4.32;;;20.20;66.90;;;;;;5074649;28;20044;-68
2023/05/11 09:36:44;;;;;;;8.02;4.63;;;20.20;67.20;;;;;;5072272;28;20103;-68
2023/05/11 09:39:10;;;;;;;6.80;3.58;;;20.10;67.50;;;;;;5074224;28;20036;-69
2023/05/11 09:41:35;;;;;;;7.75;4.35;;;20.20;67.80;;;;;;5074704;28;20107;-70
2023/05/11 09:44:19;;;;;;;7.63;4.32;;;20.20;67.90;;;;;;5073673;28;20078;-69
2023/05/11 09:46:44;;;;;;;8.52;4.40;;;20.20;68.00;;;;;;5072152;28;20036;-70
2023/05/11 09:49:10;;;;;;;7.85;4.03;;;20.20;68.00;;;;;;5072774;28;20032;-70
2023/05/11 09:51:39;;;;;;;9.10;3.75;;;20.20;68.00;;;;;;5072832;28;20032;-70
2023/05/11 09:54:15;;;;;;;;;;;20.20;68.00;;;;;;5074483;28;20028;-71
2023/05/11 09:56:48;;;;;;;8.45;3.78;;;20.20;68.10;;;;;;5071238;28;19982;-70
2023/05/11 09:59:15;;;;;;;8.85;4.15;;;20.30;68.20;;;;;;5070729;28;20036;-71
2023/05/11 10:01:40;;;;;;;11.48;4.13;;;20.30;68.20;;;;;;5073051;28;20090;-70
2023/05/11 10:04:09;;;;;;;8.98;3.97;;;20.30;68.20;;;;;;5073859;28;20040;-70
2023/05/11 10:06:47;;;;;;;;;;;20.30;68.30;;;;;;5070782;28;20037;-69
2023/05/11 10:09:14;;;;;;;8.20;3.70;;;20.30;68.20;;;;;;5071610;28;19928;-69
2023/05/11 10:11:42;;;;;;;6.63;4.07;;;20.30;68.30;;;;;;5073140;28;20068;-70
2023/05/11 10:14:08;;;;;;;7.95;3.67;;;20.30;68.30;;;;;;5072426;28;20091;-71
2023/05/11 10:16:34;;;;;;;8.32;3.55;;;20.30;68.40;;;;;;5072568;28;20094;-71
2023/05/11 10:19:00;;;;;;;8.00;3.67;;;20.30;68.40;;;;;;5053305;28;20392;-70
2023/05/11 10:21:26;;;;;;;5.28;3.47;;;20.30;68.40;;;;;;5038770;28;20381;-71
2023/05/11 10:23:51;;;;;;;7.75;4.00;;;20.30;68.50;;;;;;5055154;28;20537;-71
2023/05/11 10:26:17;;;;;;;7.43;4.28;;;20.30;68.50;;;;;;5070720;28;20510;-68
2023/05/11 10:28:42;;;;;;;6.35;3.47;;;20.40;68.60;;;;;;5053304;28;20488;-66
2023/05/11 10:31:08;;;;;;;7.40;3.47;;;20.40;68.50;;;;;;5072786;28;20032;-68
2023/05/11 10:33:34;;;;;;;7.28;3.58;;;20.40;68.40;;;;;;5071512;28;20512;-68
2023/05/11 10:35:59;;;;;;;7.55;3.70;;;20.40;68.40;;;;;;5072712;28;20045;-68
2023/05/11 10:38:25;;;;;;;6.95;3.63;;;20.40;68.40;;;;;;5071822;28;20052;-68
2023/05/11 10:40:51;;;;;;;17.08;3.95;;;20.40;68.50;;;;;;5071922;28;20154;-68
2023/05/11 10:43:43;;;;;;;7.55;3.92;;;20.40;68.60;;;;;;5051730;28;20049;-69
2023/05/11 10:46:23;;;;;;;6.22;3.78;;;20.50;68.80;;;;;;5053197;28;20044;-68
2023/05/11 10:48:57;;;;;;;6.07;3.20;;;20.50;68.90;;;;;;5071995;28;20048;-68
2023/05/11 10:51:47;;;;;;;7.78;3.80;;;20.40;68.80;;;;;;5071648;28;20045;-69
2023/05/11 10:54:28;;;;;;;6.68;3.53;;;20.40;68.70;;;;;;5071155;28;20045;-69
2023/05/11 10:57:00;;;;;;;7.32;3.63;;;20.50;68.80;;;;;;5073522;28;20059;-69
2023/05/11 10:59:34;;;;;;;7.38;3.80;;;20.40;68.60;;;;;;5072055;28;20059;-68
2023/05/11 11:02:01;;;;;;;4.97;3.50;;;20.50;68.60;;;;;;5062712;28;20048;-69
2023/05/11 11:04:43;;;;;;;8.77;3.72;;;20.40;68.60;;;;;;5055038;28;20040;-70
2023/05/11 11:07:08;;;;;;;5.57;3.40;;;20.50;68.60;;;;;;5071289;28;20064;-72
2023/05/11 11:09:55;;;;;;;5.43;3.17;;;20.50;68.60;;;;;;5071595;28;20040;-71
2023/05/11 11:12:26;;;;;;;5.32;3.20;;;20.50;68.60;;;;;;5072020;28;20495;-72
2023/05/11 11:15:04;;;;;;;6.55;3.53;;;20.40;68.50;;;;;;5053712;28;20037;-71
2023/05/11 11:17:33;;;;;;;6.82;3.22;;;20.50;68.60;;;;;;5063268;28;20131;-71
2023/05/11 11:20:08;;;;;;;6.13;3.10;;;20.50;68.60;;;;;;5059823;28;20090;-71
2023/05/11 11:22:42;;;;;;;6.63;3.45;;;20.50;68.60;;;;;;5063446;28;20388;-72
2023/05/11 11:25:08;;;;;;;5.50;3.25;;;20.50;68.60;;;;;;5057279;28;20052;-71
2023/05/11 11:27:39;;;;;;;6.35;3.42;;;20.50;68.50;;;;;;5071256;28;20048;-70
2023/05/11 11:30:18;;;;;;;6.45;3.30;;;20.50;68.60;;;;;;5070160;28;20102;-70
2023/05/11 11:32:47;;;;;;;7.80;3.67;;;20.50;68.60;;;;;;5072425;28;20561;-70
2023/05/11 11:35:38;;;;;;;5.53;3.10;;;20.50;68.50;;;;;;5072245;28;20036;-70
2023/05/11 11:38:04;;;;;;;7.07;3.03;;;20.50;68.50;;;;;;5070316;28;20139;-70
2023/05/11 11:40:43;;;;;;;5.40;2.95;;;20.50;68.50;;;;;;5072646;28;20049;-70
2023/05/11 11:43:23;;;;;;;6.60;3.08;;;20.50;68.50;;;;;;5071026;28;20083;-69
2023/05/11 11:45:50;;;;;;;5.28;3.08;;;20.50;68.50;;;;;;5071489;28;20078;-69
2023/05/11 11:48:19;;;;;;;5.72;2.97;;;20.50;68.50;;;;;;5069071;28;20036;-69
2023/05/11 11:50:46;;;;;;;7.55;3.00;;;20.50;68.50;;;;;;5071271;28;20044;-69
2023/05/11 11:53:33;;;;;;;7.40;3.03;;;20.50;68.40;;;;;;5071557;28;20582;-69
2023/05/11 11:55:59;;;;;;;6.20;3.20;;;20.60;68.50;;;;;;5069736;28;20558;-70
2023/05/11 11:58:43;;;;;;;5.63;3.13;;;20.60;68.50;;;;;;5070327;28;20116;-70
2023/05/11 12:01:15;;;;;;;5.03;2.90;;;20.60;68.50;;;;;;5069023;28;20044;-69
2023/05/11 12:03:43;;;;;;;5.78;3.40;;;20.60;68.40;;;;;;5068497;28;20089;-69
2023/05/11 12:06:10;;;;;;;4.75;2.78;;;20.60;68.50;;;;;;5070819;28;20134;-69
2023/05/11 12:08:36;;;;;;;4.78;2.90;;;20.60;68.40;;;;;;5071720;28;20108;-69
2023/05/11 12:11:03;;;;;;;6.13;3.10;;;20.60;68.50;;;;;;5072339;28;20040;-69
2023/05/11 12:13:29;;;;;;;4.95;2.78;;;20.60;68.40;;;;;;5069604;28;20393;-69
2023/05/11 12:16:11;;;;;;;6.53;2.88;;;20.60;68.40;;;;;;5070390;28;20598;-69
2023/05/11 12:18:37;;;;;;;5.95;3.35;;;20.60;68.50;;;;;;5067647;28;20044;-69
2023/05/11 12:21:02;;;;;;;4.63;2.60;;;20.60;68.40;;;;;;5074249;28;20068;-69
2023/05/11 12:23:28;;;;;;;5.88;2.58;;;20.60;68.40;;;;;;5073430;28;20471;-69
2023/05/11 12:26:04;;;;;;;5.10;3.10;;;20.60;68.40;;;;;;5074926;28;20048;-69
2023/05/11 12:28:31;;;;;;;5.95;2.90;;;20.70;68.40;;;;;;5075146;28;20064;-69
2023/05/11 12:30:56;;;;;;;4.65;2.70;;;20.70;68.40;;;;;;5072960;28;20068;-70
2023/05/11 12:33:22;;;;;;;5.32;2.97;;;20.70;68.40;;;;;;5074737;28;20067;-69
2023/05/11 12:35:54;;;;;;;5.20;2.75;;;20.70;68.50;;;;;;5075631;28;20089;-69
2023/05/11 12:38:20;;;;;;;4.95;2.97;;;20.70;68.40;;;;;;5073083;28;20044;-69
2023/05/11 12:40:50;;;;;;;4.85;2.80;;;20.60;68.40;;;;;;5073562;28;20209;-69
2023/05/11 12:43:17;;;;;;;5.07;2.90;;;20.70;68.40;;;;;;5074985;28;20047;-69
2023/05/11 12:45:42;;;;;;;6.90;3.00;;;20.70;68.40;;;;;;5075645;28;20047;-70
2023/05/11 12:48:08;;;;;;;7.03;3.03;;;20.70;68.40;;;;;;5057371;28;20048;-71
2023/05/11 12:50:39;;;;;;;5.10;2.63;;;20.70;68.30;;;;;;5074423;28;20059;-68